sensor_id;sensor_type;location;lat;lon;timestamp;temperature;humidity
820;DHT22;392;48.838;2.322;2023-09-18T00:00:45;21.00;82.10
820;DHT22;392;48.838;2.322;2023-09-18T00:03:12;21.00;82.30
820;DHT22;392;48.838;2.322;2023-09-18T00:05:41;21.00;83.80
820;DHT22;392;48.838;2.322;2023-09-18T00:08:08;21.00;82.10
820;DHT22;392;48.838;2.322;2023-09-18T00:10:35;21.10;82.20
820;DHT22;392;48.838;2.322;2023-09-18T00:13:03;21.20;81.40
820;DHT22;392;48.838;2.322;2023-09-18T00:15:30;21.30;80.10
820;DHT22;392;48.838;2.322;2023-09-18T00:17:58;21.60;82.30
820;DHT22;392;48.838;2.322;2023-09-18T00:20:25;21.90;81.10
820;DHT22;392;48.838;2.322;2023-09-18T00:22:54;22.20;78.40
820;DHT22;392;48.838;2.322;2023-09-18T00:25:21;22.30;74.30
820;DHT22;392;48.838;2.322;2023-09-18T00:27:49;22.60;72.80
820;DHT22;392;48.838;2.322;2023-09-18T00:30:17;22.80;69.90
820;DHT22;392;48.838;2.322;2023-09-18T00:32:44;23.00;66.80
820;DHT22;392;48.838;2.322;2023-09-18T00:35:12;23.20;63.70
820;DHT22;392;48.838;2.322;2023-09-18T00:37:41;23.40;61.20
820;DHT22;392;48.838;2.322;2023-09-18T00:40:12;23.40;57.40
820;DHT22;392;48.838;2.322;2023-09-18T00:42:39;23.20;59.60
820;DHT22;392;48.838;2.322;2023-09-18T00:45:07;23.30;60.90
820;DHT22;392;48.838;2.322;2023-09-18T00:47:35;23.30;59.50
820;DHT22;392;48.838;2.322;2023-09-18T00:50:04;23.50;57.70
820;DHT22;392;48.838;2.322;2023-09-18T00:52:34;23.50;56.50
820;DHT22;392;48.838;2.322;2023-09-18T00:55:02;23.50;56.50
820;DHT22;392;48.838;2.322;2023-09-18T00:57:32;23.50;55.80
820;DHT22;392;48.838;2.322;2023-09-18T00:59:59;23.40;55.20
820;DHT22;392;48.838;2.322;2023-09-18T01:02:26;23.40;54.40
820;DHT22;392;48.838;2.322;2023-09-18T01:04:55;23.40;54.30
820;DHT22;392;48.838;2.322;2023-09-18T01:07:23;23.40;53.90
820;DHT22;392;48.838;2.322;2023-09-18T01:09:50;23.30;52.90
820;DHT22;392;48.838;2.322;2023-09-18T01:12:23;23.30;54.30
820;DHT22;392;48.838;2.322;2023-09-18T01:14:59;23.30;53.70
820;DHT22;392;48.838;2.322;2023-09-18T01:17:34;23.30;53.40
820;DHT22;392;48.838;2.322;2023-09-18T01:20:05;23.30;53.50
820;DHT22;392;48.838;2.322;2023-09-18T01:22:34;23.30;53.40
820;DHT22;392;48.838;2.322;2023-09-18T01:25:01;23.20;53.40
820;DHT22;392;48.838;2.322;2023-09-18T01:27:29;23.20;54.30
820;DHT22;392;48.838;2.322;2023-09-18T01:29:57;23.20;52.90
820;DHT22;392;48.838;2.322;2023-09-18T01:32:28;23.30;52.80
820;DHT22;392;48.838;2.322;2023-09-18T01:34:57;23.30;52.60
820;DHT22;392;48.838;2.322;2023-09-18T01:37:29;23.30;52.10
820;DHT22;392;48.838;2.322;2023-09-18T01:39:58;23.30;50.80
820;DHT22;392;48.838;2.322;2023-09-18T01:42:26;23.30;51.30
820;DHT22;392;48.838;2.322;2023-09-18T01:44:54;23.30;51.30
820;DHT22;392;48.838;2.322;2023-09-18T01:47:22;23.30;50.80
820;DHT22;392;48.838;2.322;2023-09-18T01:49:50;23.30;51.30
820;DHT22;392;48.838;2.322;2023-09-18T01:52:17;23.30;51.30
820;DHT22;392;48.838;2.322;2023-09-18T01:54:44;23.20;50.90
820;DHT22;392;48.838;2.322;2023-09-18T01:57:13;23.20;51.20
820;DHT22;392;48.838;2.322;2023-09-18T01:59:41;23.20;51.60
820;DHT22;392;48.838;2.322;2023-09-18T02:02:09;23.20;51.60
820;DHT22;392;48.838;2.322;2023-09-18T02:04:37;23.10;51.60
820;DHT22;392;48.838;2.322;2023-09-18T02:07:05;23.10;52.20
820;DHT22;392;48.838;2.322;2023-09-18T02:09:35;23.20;52.60
820;DHT22;392;48.838;2.322;2023-09-18T02:12:02;23.20;51.90
820;DHT22;392;48.838;2.322;2023-09-18T02:14:33;23.20;51.90
820;DHT22;392;48.838;2.322;2023-09-18T02:17:00;23.20;51.40
820;DHT22;392;48.838;2.322;2023-09-18T02:19:28;23.20;51.20
820;DHT22;392;48.838;2.322;2023-09-18T02:21:56;23.20;52.00
820;DHT22;392;48.838;2.322;2023-09-18T02:24:24;23.20;51.20
820;DHT22;392;48.838;2.322;2023-09-18T02:26:51;23.10;52.00
820;DHT22;392;48.838;2.322;2023-09-18T02:29:19;23.20;52.10
820;DHT22;392;48.838;2.322;2023-09-18T02:31:47;23.20;51.90
820;DHT22;392;48.838;2.322;2023-09-18T02:34:14;23.20;51.80
820;DHT22;392;48.838;2.322;2023-09-18T02:36:44;23.20;51.20
820;DHT22;392;48.838;2.322;2023-09-18T02:39:11;23.20;51.50
820;DHT22;392;48.838;2.322;2023-09-18T02:41:38;23.20;51.90
820;DHT22;392;48.838;2.322;2023-09-18T02:44:06;23.10;51.80
820;DHT22;392;48.838;2.322;2023-09-18T02:46:33;23.10;51.90
820;DHT22;392;48.838;2.322;2023-09-18T02:49:01;23.10;51.90
820;DHT22;392;48.838;2.322;2023-09-18T02:51:29;23.20;52.00
820;DHT22;392;48.838;2.322;2023-09-18T02:53:57;23.20;51.20
820;DHT22;392;48.838;2.322;2023-09-18T02:56:25;23.20;52.10
820;DHT22;392;48.838;2.322;2023-09-18T02:58:52;23.20;51.80
820;DHT22;392;48.838;2.322;2023-09-18T03:01:20;23.10;50.10
820;DHT22;392;48.838;2.322;2023-09-18T03:03:47;23.00;52.30
820;DHT22;392;48.838;2.322;2023-09-18T03:06:16;23.00;53.40
820;DHT22;392;48.838;2.322;2023-09-18T03:08:44;23.10;52.80
820;DHT22;392;48.838;2.322;2023-09-18T03:11:11;23.20;52.20
820;DHT22;392;48.838;2.322;2023-09-18T03:13:44;23.30;51.50
820;DHT22;392;48.838;2.322;2023-09-18T03:16:12;23.30;51.30
820;DHT22;392;48.838;2.322;2023-09-18T03:18:40;23.30;51.00
820;DHT22;392;48.838;2.322;2023-09-18T03:21:08;23.40;50.80
820;DHT22;392;48.838;2.322;2023-09-18T03:23:36;23.30;50.50
820;DHT22;392;48.838;2.322;2023-09-18T03:26:04;23.30;50.30
820;DHT22;392;48.838;2.322;2023-09-18T03:28:31;23.40;50.30
820;DHT22;392;48.838;2.322;2023-09-18T03:30:59;23.40;50.10
820;DHT22;392;48.838;2.322;2023-09-18T03:33:27;23.30;50.00
820;DHT22;392;48.838;2.322;2023-09-18T03:35:54;23.30;49.90
820;DHT22;392;48.838;2.322;2023-09-18T03:38:26;23.30;50.40
820;DHT22;392;48.838;2.322;2023-09-18T03:40:59;23.30;50.30
820;DHT22;392;48.838;2.322;2023-09-18T03:43:27;23.30;50.10
820;DHT22;392;48.838;2.322;2023-09-18T03:45:54;23.30;49.90
820;DHT22;392;48.838;2.322;2023-09-18T03:48:22;23.30;49.70
820;DHT22;392;48.838;2.322;2023-09-18T03:50:50;23.30;49.80
820;DHT22;392;48.838;2.322;2023-09-18T03:53:17;23.40;49.70
820;DHT22;392;48.838;2.322;2023-09-18T03:55:45;23.30;48.70
820;DHT22;392;48.838;2.322;2023-09-18T03:58:14;23.30;50.00
820;DHT22;392;48.838;2.322;2023-09-18T04:00:42;23.30;49.40
820;DHT22;392;48.838;2.322;2023-09-18T04:03:09;23.30;50.30
820;DHT22;392;48.838;2.322;2023-09-18T04:05:36;23.20;48.50
820;DHT22;392;48.838;2.322;2023-09-18T04:08:04;23.10;50.20
820;DHT22;392;48.838;2.322;2023-09-18T04:10:31;23.10;51.40
820;DHT22;392;48.838;2.322;2023-09-18T04:12:59;23.00;52.00
820;DHT22;392;48.838;2.322;2023-09-18T04:15:27;23.10;52.50
820;DHT22;392;48.838;2.322;2023-09-18T04:17:56;23.20;50.20
820;DHT22;392;48.838;2.322;2023-09-18T04:20:23;23.00;51.00
820;DHT22;392;48.838;2.322;2023-09-18T04:23:19;23.00;51.50
820;DHT22;392;48.838;2.322;2023-09-18T04:25:48;22.90;52.30
820;DHT22;392;48.838;2.322;2023-09-18T04:28:17;22.80;53.60
820;DHT22;392;48.838;2.322;2023-09-18T04:30:46;22.90;54.90
820;DHT22;392;48.838;2.322;2023-09-18T04:33:14;23.00;53.10
820;DHT22;392;48.838;2.322;2023-09-18T04:35:43;23.10;51.10
820;DHT22;392;48.838;2.322;2023-09-18T04:38:11;23.10;52.70
820;DHT22;392;48.838;2.322;2023-09-18T04:40:41;23.20;52.50
820;DHT22;392;48.838;2.322;2023-09-18T04:43:08;23.30;51.80
820;DHT22;392;48.838;2.322;2023-09-18T04:45:36;23.30;51.10
820;DHT22;392;48.838;2.322;2023-09-18T04:48:05;23.20;49.90
820;DHT22;392;48.838;2.322;2023-09-18T04:50:33;23.20;51.20
820;DHT22;392;48.838;2.322;2023-09-18T04:53:01;23.20;52.10
820;DHT22;392;48.838;2.322;2023-09-18T04:55:29;23.30;51.30
820;DHT22;392;48.838;2.322;2023-09-18T04:57:57;23.00;50.70
820;DHT22;392;48.838;2.322;2023-09-18T05:00:25;22.90;54.30
820;DHT22;392;48.838;2.322;2023-09-18T05:02:55;23.00;54.40
820;DHT22;392;48.838;2.322;2023-09-18T05:05:24;23.10;53.30
820;DHT22;392;48.838;2.322;2023-09-18T05:07:51;23.20;51.60
820;DHT22;392;48.838;2.322;2023-09-18T05:10:19;23.20;50.00
820;DHT22;392;48.838;2.322;2023-09-18T05:12:46;22.90;49.30
820;DHT22;392;48.838;2.322;2023-09-18T05:15:14;22.60;50.70
820;DHT22;392;48.838;2.322;2023-09-18T05:17:44;22.40;53.00
820;DHT22;392;48.838;2.322;2023-09-18T05:20:16;22.30;54.50
820;DHT22;392;48.838;2.322;2023-09-18T05:22:45;22.20;55.30
820;DHT22;392;48.838;2.322;2023-09-18T05:25:13;22.30;60.20
820;DHT22;392;48.838;2.322;2023-09-18T05:27:41;22.40;56.60
820;DHT22;392;48.838;2.322;2023-09-18T05:30:12;22.50;58.40
820;DHT22;392;48.838;2.322;2023-09-18T05:32:42;22.70;57.10
820;DHT22;392;48.838;2.322;2023-09-18T05:35:09;22.90;57.00
820;DHT22;392;48.838;2.322;2023-09-18T05:37:38;23.10;55.10
820;DHT22;392;48.838;2.322;2023-09-18T05:40:10;23.30;51.30
820;DHT22;392;48.838;2.322;2023-09-18T05:42:39;23.20;52.60
820;DHT22;392;48.838;2.322;2023-09-18T05:45:09;23.20;51.20
820;DHT22;392;48.838;2.322;2023-09-18T05:47:37;22.90;51.50
820;DHT22;392;48.838;2.322;2023-09-18T05:50:06;22.80;55.40
820;DHT22;392;48.838;2.322;2023-09-18T05:52:35;22.90;55.00
820;DHT22;392;48.838;2.322;2023-09-18T05:55:02;23.00;53.10
820;DHT22;392;48.838;2.322;2023-09-18T05:57:31;23.10;52.90
820;DHT22;392;48.838;2.322;2023-09-18T05:59:59;23.20;51.20
820;DHT22;392;48.838;2.322;2023-09-18T06:02:26;23.30;49.90
820;DHT22;392;48.838;2.322;2023-09-18T06:04:57;23.30;51.00
820;DHT22;392;48.838;2.322;2023-09-18T06:07:26;23.30;51.30
820;DHT22;392;48.838;2.322;2023-09-18T06:09:54;23.40;50.90
820;DHT22;392;48.838;2.322;2023-09-18T06:12:21;23.40;50.20
820;DHT22;392;48.838;2.322;2023-09-18T06:14:50;23.40;49.80
820;DHT22;392;48.838;2.322;2023-09-18T06:17:18;23.20;47.20
820;DHT22;392;48.838;2.322;2023-09-18T06:19:45;22.70;48.00
820;DHT22;392;48.838;2.322;2023-09-18T06:22:13;22.20;52.40
820;DHT22;392;48.838;2.322;2023-09-18T06:24:41;21.90;55.00
820;DHT22;392;48.838;2.322;2023-09-18T06:27:09;21.50;59.40
820;DHT22;392;48.838;2.322;2023-09-18T06:29:36;21.30;61.60
820;DHT22;392;48.838;2.322;2023-09-18T06:32:06;21.00;64.20
820;DHT22;392;48.838;2.322;2023-09-18T06:34:33;20.90;66.30
820;DHT22;392;48.838;2.322;2023-09-18T06:37:01;20.70;66.80
820;DHT22;392;48.838;2.322;2023-09-18T06:39:29;20.60;68.10
820;DHT22;392;48.838;2.322;2023-09-18T06:41:56;20.50;67.80
820;DHT22;392;48.838;2.322;2023-09-18T06:44:23;20.40;69.70
820;DHT22;392;48.838;2.322;2023-09-18T06:46:51;20.40;70.90
820;DHT22;392;48.838;2.322;2023-09-18T06:49:20;20.30;71.50
820;DHT22;392;48.838;2.322;2023-09-18T06:51:47;20.30;72.00
820;DHT22;392;48.838;2.322;2023-09-18T06:54:15;20.30;73.60
820;DHT22;392;48.838;2.322;2023-09-18T06:56:42;20.30;73.40
820;DHT22;392;48.838;2.322;2023-09-18T06:59:10;20.40;74.20
820;DHT22;392;48.838;2.322;2023-09-18T07:01:38;20.40;74.60
820;DHT22;392;48.838;2.322;2023-09-18T07:04:08;20.50;74.50
820;DHT22;392;48.838;2.322;2023-09-18T07:06:37;20.60;74.90
820;DHT22;392;48.838;2.322;2023-09-18T07:09:04;20.70;73.60
820;DHT22;392;48.838;2.322;2023-09-18T07:11:32;20.80;72.80
820;DHT22;392;48.838;2.322;2023-09-18T07:14:00;20.80;71.40
820;DHT22;392;48.838;2.322;2023-09-18T07:16:32;20.90;70.70
820;DHT22;392;48.838;2.322;2023-09-18T07:18:59;20.80;71.20
820;DHT22;392;48.838;2.322;2023-09-18T07:21:27;20.80;71.00
820;DHT22;392;48.838;2.322;2023-09-18T07:23:57;20.90;70.70
820;DHT22;392;48.838;2.322;2023-09-18T07:26:24;21.00;68.90
820;DHT22;392;48.838;2.322;2023-09-18T07:28:51;20.90;69.40
820;DHT22;392;48.838;2.322;2023-09-18T07:31:19;21.00;68.50
820;DHT22;392;48.838;2.322;2023-09-18T07:33:46;21.00;68.30
820;DHT22;392;48.838;2.322;2023-09-18T07:36:14;21.00;67.40
820;DHT22;392;48.838;2.322;2023-09-18T07:38:41;21.00;67.50
820;DHT22;392;48.838;2.322;2023-09-18T07:41:10;21.00;68.20
820;DHT22;392;48.838;2.322;2023-09-18T07:43:38;21.00;68.50
820;DHT22;392;48.838;2.322;2023-09-18T07:46:07;21.10;67.90
820;DHT22;392;48.838;2.322;2023-09-18T07:48:34;21.20;67.20
820;DHT22;392;48.838;2.322;2023-09-18T07:51:03;21.20;65.50
820;DHT22;392;48.838;2.322;2023-09-18T07:53:31;21.30;65.90
820;DHT22;392;48.838;2.322;2023-09-18T07:55:58;21.30;63.90
820;DHT22;392;48.838;2.322;2023-09-18T07:58:28;21.30;63.70
820;DHT22;392;48.838;2.322;2023-09-18T08:00:56;21.40;63.70
820;DHT22;392;48.838;2.322;2023-09-18T08:03:24;21.50;62.40
820;DHT22;392;48.838;2.322;2023-09-18T08:05:52;21.40;62.20
820;DHT22;392;48.838;2.322;2023-09-18T08:08:20;21.50;62.60
820;DHT22;392;48.838;2.322;2023-09-18T08:10:49;21.60;61.60
820;DHT22;392;48.838;2.322;2023-09-18T08:13:17;21.60;60.50
820;DHT22;392;48.838;2.322;2023-09-18T08:15:46;21.60;60.10
820;DHT22;392;48.838;2.322;2023-09-18T08:18:14;21.60;60.60
820;DHT22;392;48.838;2.322;2023-09-18T08:20:42;21.80;59.20
820;DHT22;392;48.838;2.322;2023-09-18T08:23:10;22.00;56.80
820;DHT22;392;48.838;2.322;2023-09-18T08:28:06;22.30;54.20
820;DHT22;392;48.838;2.322;2023-09-18T08:30:34;22.30;53.20
820;DHT22;392;48.838;2.322;2023-09-18T08:33:04;22.20;52.30
820;DHT22;392;48.838;2.322;2023-09-18T08:38:31;22.30;52.50
820;DHT22;392;48.838;2.322;2023-09-18T08:44:10;22.70;50.50
820;DHT22;392;48.838;2.322;2023-09-18T08:46:38;22.80;50.60
820;DHT22;392;48.838;2.322;2023-09-18T08:49:07;22.90;48.30
820;DHT22;392;48.838;2.322;2023-09-18T08:51:35;22.80;46.80
820;DHT22;392;48.838;2.322;2023-09-18T08:54:04;22.80;46.20
820;DHT22;392;48.838;2.322;2023-09-18T08:56:32;22.80;46.10
820;DHT22;392;48.838;2.322;2023-09-18T08:59:00;22.80;47.50
820;DHT22;392;48.838;2.322;2023-09-18T09:01:28;23.00;44.60
820;DHT22;392;48.838;2.322;2023-09-18T09:03:55;23.10;45.50
820;DHT22;392;48.838;2.322;2023-09-18T09:06:24;23.50;46.20
820;DHT22;392;48.838;2.322;2023-09-18T09:08:51;24.20;41.30
820;DHT22;392;48.838;2.322;2023-09-18T09:11:18;24.40;38.90
820;DHT22;392;48.838;2.322;2023-09-18T09:13:46;24.40;38.80
820;DHT22;392;48.838;2.322;2023-09-18T09:16:13;24.60;37.20
820;DHT22;392;48.838;2.322;2023-09-18T09:18:48;24.40;37.00
820;DHT22;392;48.838;2.322;2023-09-18T09:21:16;23.90;38.80
820;DHT22;392;48.838;2.322;2023-09-18T09:23:51;23.60;41.90
820;DHT22;392;48.838;2.322;2023-09-18T09:26:20;23.40;42.80
820;DHT22;392;48.838;2.322;2023-09-18T09:28:49;23.40;44.20
820;DHT22;392;48.838;2.322;2023-09-18T09:31:27;23.50;43.60
820;DHT22;392;48.838;2.322;2023-09-18T09:33:56;23.60;41.40
820;DHT22;392;48.838;2.322;2023-09-18T09:36:24;23.60;40.00
820;DHT22;392;48.838;2.322;2023-09-18T09:38:56;23.50;39.90
820;DHT22;392;48.838;2.322;2023-09-18T09:41:24;23.50;40.50
820;DHT22;392;48.838;2.322;2023-09-18T09:43:53;23.40;40.20
820;DHT22;392;48.838;2.322;2023-09-18T09:46:22;23.30;41.10
820;DHT22;392;48.838;2.322;2023-09-18T09:49:01;23.30;41.90
820;DHT22;392;48.838;2.322;2023-09-18T09:51:30;23.30;41.10
820;DHT22;392;48.838;2.322;2023-09-18T09:53:59;23.40;41.60
820;DHT22;392;48.838;2.322;2023-09-18T09:56:43;23.60;41.00
820;DHT22;392;48.838;2.322;2023-09-18T09:59:12;23.80;40.30
820;DHT22;392;48.838;2.322;2023-09-18T10:01:41;23.90;38.40
820;DHT22;392;48.838;2.322;2023-09-18T10:04:12;24.00;37.20
820;DHT22;392;48.838;2.322;2023-09-18T10:06:44;24.10;35.70
820;DHT22;392;48.838;2.322;2023-09-18T10:09:15;24.10;35.90
820;DHT22;392;48.838;2.322;2023-09-18T10:11:46;24.20;36.00
820;DHT22;392;48.838;2.322;2023-09-18T10:14:18;24.60;35.10
820;DHT22;392;48.838;2.322;2023-09-18T10:16:51;25.00;32.20
820;DHT22;392;48.838;2.322;2023-09-18T10:19:27;25.20;32.30
820;DHT22;392;48.838;2.322;2023-09-18T10:22:06;25.60;30.60
820;DHT22;392;48.838;2.322;2023-09-18T10:24:39;25.70;29.60
820;DHT22;392;48.838;2.322;2023-09-18T10:27:08;26.00;29.00
820;DHT22;392;48.838;2.322;2023-09-18T10:29:37;25.90;29.20
820;DHT22;392;48.838;2.322;2023-09-18T10:32:05;25.80;29.50
820;DHT22;392;48.838;2.322;2023-09-18T10:34:35;25.80;29.10
820;DHT22;392;48.838;2.322;2023-09-18T10:37:04;26.10;29.00
820;DHT22;392;48.838;2.322;2023-09-18T10:39:34;26.90;28.30
820;DHT22;392;48.838;2.322;2023-09-18T10:42:04;28.00;24.60
820;DHT22;392;48.838;2.322;2023-09-18T10:44:34;28.50;22.30
820;DHT22;392;48.838;2.322;2023-09-18T10:47:03;29.10;20.00
820;DHT22;392;48.838;2.322;2023-09-18T10:49:33;29.10;20.00
820;DHT22;392;48.838;2.322;2023-09-18T10:52:02;29.30;18.60
820;DHT22;392;48.838;2.322;2023-09-18T10:54:31;29.60;18.50
820;DHT22;392;48.838;2.322;2023-09-18T10:56:59;30.30;16.80
820;DHT22;392;48.838;2.322;2023-09-18T10:59:29;30.90;16.00
820;DHT22;392;48.838;2.322;2023-09-18T11:02:02;31.60;14.70
820;DHT22;392;48.838;2.322;2023-09-18T11:04:32;32.00;13.50
820;DHT22;392;48.838;2.322;2023-09-18T11:07:02;31.40;13.40
820;DHT22;392;48.838;2.322;2023-09-18T11:09:43;30.10;15.30
820;DHT22;392;48.838;2.322;2023-09-18T11:12:11;29.10;17.00
820;DHT22;392;48.838;2.322;2023-09-18T11:14:44;28.70;18.10
820;DHT22;392;48.838;2.322;2023-09-18T11:17:28;28.20;18.40
820;DHT22;392;48.838;2.322;2023-09-18T11:20:08;28.30;18.90
820;DHT22;392;48.838;2.322;2023-09-18T11:22:38;29.10;17.90
820;DHT22;392;48.838;2.322;2023-09-18T11:25:28;30.10;16.00
820;DHT22;392;48.838;2.322;2023-09-18T11:28:07;30.80;14.90
820;DHT22;392;48.838;2.322;2023-09-18T11:30:36;31.80;12.20
820;DHT22;392;48.838;2.322;2023-09-18T11:33:06;32.00;12.20
820;DHT22;392;48.838;2.322;2023-09-18T11:35:35;32.20;12.00
820;DHT22;392;48.838;2.322;2023-09-18T11:38:05;32.40;12.00
820;DHT22;392;48.838;2.322;2023-09-18T11:40:34;33.00;10.80
820;DHT22;392;48.838;2.322;2023-09-18T11:43:19;33.50;10.10
820;DHT22;392;48.838;2.322;2023-09-18T11:45:52;33.80;8.90
820;DHT22;392;48.838;2.322;2023-09-18T11:48:20;33.50;8.90
820;DHT22;392;48.838;2.322;2023-09-18T11:50:49;32.90;9.30
820;DHT22;392;48.838;2.322;2023-09-18T11:53:17;32.70;9.30
820;DHT22;392;48.838;2.322;2023-09-18T11:55:45;32.80;8.80
820;DHT22;392;48.838;2.322;2023-09-18T11:58:13;32.90;9.20
820;DHT22;392;48.838;2.322;2023-09-18T12:00:41;33.00;9.30
820;DHT22;392;48.838;2.322;2023-09-18T12:03:17;32.90;9.20
820;DHT22;392;48.838;2.322;2023-09-18T12:05:53;33.10;9.00
820;DHT22;392;48.838;2.322;2023-09-18T12:08:22;33.20;8.30
820;DHT22;392;48.838;2.322;2023-09-18T12:10:52;32.90;8.60
820;DHT22;392;48.838;2.322;2023-09-18T12:13:20;32.30;9.30
820;DHT22;392;48.838;2.322;2023-09-18T12:15:47;31.90;9.80
820;DHT22;392;48.838;2.322;2023-09-18T12:18:16;31.90;10.30
820;DHT22;392;48.838;2.322;2023-09-18T12:20:47;32.30;9.50
820;DHT22;392;48.838;2.322;2023-09-18T12:23:15;32.50;9.10
820;DHT22;392;48.838;2.322;2023-09-18T12:25:46;32.50;8.90
820;DHT22;392;48.838;2.322;2023-09-18T12:28:16;32.80;8.40
820;DHT22;392;48.838;2.322;2023-09-18T12:30:44;32.10;8.90
820;DHT22;392;48.838;2.322;2023-09-18T12:33:12;31.60;9.70
820;DHT22;392;48.838;2.322;2023-09-18T12:35:41;31.80;9.60
820;DHT22;392;48.838;2.322;2023-09-18T12:38:16;32.30;7.90
820;DHT22;392;48.838;2.322;2023-09-18T12:40:45;31.90;9.10
820;DHT22;392;48.838;2.322;2023-09-18T12:43:13;30.90;9.60
820;DHT22;392;48.838;2.322;2023-09-18T12:45:43;30.10;11.20
820;DHT22;392;48.838;2.322;2023-09-18T12:48:13;29.40;12.80
820;DHT22;392;48.838;2.322;2023-09-18T12:50:42;28.60;14.00
820;DHT22;392;48.838;2.322;2023-09-18T12:53:10;27.70;15.20
820;DHT22;392;48.838;2.322;2023-09-18T12:55:39;27.20;16.90
820;DHT22;392;48.838;2.322;2023-09-18T12:58:10;27.80;15.90
820;DHT22;392;48.838;2.322;2023-09-18T13:00:45;28.20;15.80
820;DHT22;392;48.838;2.322;2023-09-18T13:03:13;27.70;16.30
820;DHT22;392;48.838;2.322;2023-09-18T13:05:41;27.20;18.10
820;DHT22;392;48.838;2.322;2023-09-18T13:08:09;27.20;18.40
820;DHT22;392;48.838;2.322;2023-09-18T13:10:42;27.90;17.80
820;DHT22;392;48.838;2.322;2023-09-18T13:13:16;28.50;16.70
820;DHT22;392;48.838;2.322;2023-09-18T13:15:44;29.00;15.50
820;DHT22;392;48.838;2.322;2023-09-18T13:18:14;29.40;15.00
820;DHT22;392;48.838;2.322;2023-09-18T13:20:43;29.60;13.60
820;DHT22;392;48.838;2.322;2023-09-18T13:23:11;29.50;12.80
820;DHT22;392;48.838;2.322;2023-09-18T13:25:39;29.30;13.50
820;DHT22;392;48.838;2.322;2023-09-18T13:28:10;28.60;14.00
820;DHT22;392;48.838;2.322;2023-09-18T13:30:40;28.10;15.10
820;DHT22;392;48.838;2.322;2023-09-18T13:33:09;28.20;15.50
820;DHT22;392;48.838;2.322;2023-09-18T13:35:38;28.60;12.90
820;DHT22;392;48.838;2.322;2023-09-18T13:38:08;28.80;12.40
820;DHT22;392;48.838;2.322;2023-09-18T13:40:37;29.00;11.70
820;DHT22;392;48.838;2.322;2023-09-18T13:43:05;29.10;11.90
820;DHT22;392;48.838;2.322;2023-09-18T13:45:33;28.70;12.40
820;DHT22;392;48.838;2.322;2023-09-18T13:48:01;28.60;12.40
820;DHT22;392;48.838;2.322;2023-09-18T13:50:28;28.20;12.10
820;DHT22;392;48.838;2.322;2023-09-18T13:52:56;27.40;12.90
820;DHT22;392;48.838;2.322;2023-09-18T13:55:24;27.00;14.30
820;DHT22;392;48.838;2.322;2023-09-18T13:57:52;26.70;15.30
820;DHT22;392;48.838;2.322;2023-09-18T14:00:19;26.60;15.70
820;DHT22;392;48.838;2.322;2023-09-18T14:02:46;26.60;16.10
820;DHT22;392;48.838;2.322;2023-09-18T14:05:13;26.70;16.30
820;DHT22;392;48.838;2.322;2023-09-18T14:07:41;26.30;16.90
820;DHT22;392;48.838;2.322;2023-09-18T14:10:10;26.00;17.70
820;DHT22;392;48.838;2.322;2023-09-18T14:12:39;25.80;18.00
820;DHT22;392;48.838;2.322;2023-09-18T14:15:08;25.50;18.00
820;DHT22;392;48.838;2.322;2023-09-18T14:17:36;25.40;18.30
820;DHT22;392;48.838;2.322;2023-09-18T14:20:05;25.40;18.20
820;DHT22;392;48.838;2.322;2023-09-18T14:22:33;25.50;17.10
820;DHT22;392;48.838;2.322;2023-09-18T14:25:00;25.60;17.20
820;DHT22;392;48.838;2.322;2023-09-18T14:27:31;25.80;17.40
820;DHT22;392;48.838;2.322;2023-09-18T14:30:00;26.10;16.70
820;DHT22;392;48.838;2.322;2023-09-18T14:32:32;26.20;16.50
820;DHT22;392;48.838;2.322;2023-09-18T14:34:59;26.10;17.00
820;DHT22;392;48.838;2.322;2023-09-18T14:37:28;26.00;17.20
820;DHT22;392;48.838;2.322;2023-09-18T14:39:55;26.10;18.20
820;DHT22;392;48.838;2.322;2023-09-18T14:42:23;26.10;16.80
820;DHT22;392;48.838;2.322;2023-09-18T14:44:50;26.10;17.50
820;DHT22;392;48.838;2.322;2023-09-18T14:47:18;26.00;16.90
820;DHT22;392;48.838;2.322;2023-09-18T14:49:46;25.90;18.20
820;DHT22;392;48.838;2.322;2023-09-18T14:52:14;25.80;18.10
820;DHT22;392;48.838;2.322;2023-09-18T14:54:43;25.80;18.30
820;DHT22;392;48.838;2.322;2023-09-18T14:57:10;25.70;18.50
820;DHT22;392;48.838;2.322;2023-09-18T14:59:37;25.60;18.60
820;DHT22;392;48.838;2.322;2023-09-18T15:02:05;25.50;19.50
820;DHT22;392;48.838;2.322;2023-09-18T15:04:33;25.40;18.90
820;DHT22;392;48.838;2.322;2023-09-18T15:07:01;25.30;19.20
820;DHT22;392;48.838;2.322;2023-09-18T15:09:28;25.20;19.30
820;DHT22;392;48.838;2.322;2023-09-18T15:11:55;25.20;18.90
820;DHT22;392;48.838;2.322;2023-09-18T15:14:22;25.10;18.00
820;DHT22;392;48.838;2.322;2023-09-18T15:16:50;25.00;18.60
820;DHT22;392;48.838;2.322;2023-09-18T15:19:17;25.00;19.20
820;DHT22;392;48.838;2.322;2023-09-18T15:21:46;24.90;19.10
820;DHT22;392;48.838;2.322;2023-09-18T15:24:14;24.90;19.10
820;DHT22;392;48.838;2.322;2023-09-18T15:26:41;24.90;19.20
820;DHT22;392;48.838;2.322;2023-09-18T15:29:08;25.00;19.60
820;DHT22;392;48.838;2.322;2023-09-18T15:31:36;25.00;19.60
820;DHT22;392;48.838;2.322;2023-09-18T15:34:04;24.90;19.90
820;DHT22;392;48.838;2.322;2023-09-18T15:36:31;24.90;21.20
820;DHT22;392;48.838;2.322;2023-09-18T15:39:00;24.90;21.60
820;DHT22;392;48.838;2.322;2023-09-18T15:41:29;24.80;21.80
820;DHT22;392;48.838;2.322;2023-09-18T15:43:56;24.80;23.50
820;DHT22;392;48.838;2.322;2023-09-18T15:46:23;24.70;23.20
820;DHT22;392;48.838;2.322;2023-09-18T15:48:51;24.70;24.10
820;DHT22;392;48.838;2.322;2023-09-18T15:51:18;24.60;23.80
820;DHT22;392;48.838;2.322;2023-09-18T15:53:45;24.60;24.70
820;DHT22;392;48.838;2.322;2023-09-18T15:56:14;24.70;25.70
820;DHT22;392;48.838;2.322;2023-09-18T15:58:41;24.70;27.10
820;DHT22;392;48.838;2.322;2023-09-18T16:01:08;24.70;27.40
820;DHT22;392;48.838;2.322;2023-09-18T16:03:36;24.60;28.00
820;DHT22;392;48.838;2.322;2023-09-18T16:06:05;24.60;28.90
820;DHT22;392;48.838;2.322;2023-09-18T16:08:33;24.50;29.50
820;DHT22;392;48.838;2.322;2023-09-18T16:11:01;24.40;28.90
820;DHT22;392;48.838;2.322;2023-09-18T16:13:30;24.30;28.40
820;DHT22;392;48.838;2.322;2023-09-18T16:15:57;24.20;28.90
820;DHT22;392;48.838;2.322;2023-09-18T16:18:26;24.10;30.00
820;DHT22;392;48.838;2.322;2023-09-18T16:20:54;24.10;27.90
820;DHT22;392;48.838;2.322;2023-09-18T16:23:21;23.90;27.30
820;DHT22;392;48.838;2.322;2023-09-18T16:25:48;23.80;27.40
820;DHT22;392;48.838;2.322;2023-09-18T16:28:15;23.70;27.50
820;DHT22;392;48.838;2.322;2023-09-18T16:30:44;23.70;27.00
820;DHT22;392;48.838;2.322;2023-09-18T16:33:12;23.80;28.00
820;DHT22;392;48.838;2.322;2023-09-18T16:35:39;23.80;26.80
820;DHT22;392;48.838;2.322;2023-09-18T16:38:06;23.80;27.10
820;DHT22;392;48.838;2.322;2023-09-18T16:40:34;23.70;26.70
820;DHT22;392;48.838;2.322;2023-09-18T16:43:01;23.60;26.60
820;DHT22;392;48.838;2.322;2023-09-18T16:45:28;23.50;26.50
820;DHT22;392;48.838;2.322;2023-09-18T16:47:57;23.50;27.10
820;DHT22;392;48.838;2.322;2023-09-18T16:50:24;23.40;28.20
820;DHT22;392;48.838;2.322;2023-09-18T16:52:51;23.50;27.40